createdAt,value
2018-02-27T00:01:32.823Z,-5.30
2018-02-27T00:04:00.547Z,-5.30
2018-02-27T00:06:28.207Z,-5.40
2018-02-27T00:08:55.911Z,-5.30
2018-02-27T00:11:23.570Z,-5.50
2018-02-27T00:13:51.279Z,-5.60
2018-02-27T00:16:18.943Z,-5.50
2018-02-27T00:18:46.651Z,-5.30
2018-02-27T00:21:14.319Z,-5.30
2018-02-27T00:23:42.796Z,-5.40
2018-02-27T00:26:11.234Z,-5.30
2018-02-27T00:28:38.943Z,-5.30
2018-02-27T00:31:07.370Z,-5.30
2018-02-27T00:33:35.078Z,-5.30
2018-02-27T00:36:03.517Z,-5.20
2018-02-27T00:38:31.231Z,-5.20
2018-02-27T00:40:58.899Z,-5.20
2018-02-27T00:43:26.618Z,-5.30
2018-02-27T00:45:54.306Z,-5.20
2018-02-27T00:48:22.778Z,-5.40
2018-02-27T00:50:51.217Z,-5.20
2018-02-27T00:53:18.931Z,-5.20
2018-02-27T00:55:46.607Z,-5.30
2018-02-27T00:58:14.343Z,-5.20
2018-02-27T01:00:42.806Z,-5.20
2018-02-27T01:03:11.249Z,-5.30
2018-02-27T01:05:38.953Z,-5.30
2018-02-27T01:08:07.410Z,-5.30
2018-02-27T01:10:35.118Z,-5.30
2018-02-27T01:13:02.795Z,-5.20
2018-02-27T01:15:30.507Z,-5.20
2018-02-27T01:17:58.942Z,-5.30
2018-02-27T01:20:26.678Z,-5.30
2018-02-27T01:22:54.342Z,-5.40
2018-02-27T01:25:22.058Z,-5.50
2018-02-27T01:27:49.733Z,-5.60
2018-02-27T01:30:18.247Z,-5.60
2018-02-27T01:32:45.918Z,-5.60
2018-02-27T01:35:13.639Z,-5.60
2018-02-27T01:37:41.302Z,-5.60
2018-02-27T01:40:08.978Z,-5.50
2018-02-27T01:42:36.688Z,-5.50
2018-02-27T01:45:04.367Z,-5.60
2018-02-27T01:47:32.843Z,-5.70
2018-02-27T01:50:01.280Z,-5.70
2018-02-27T01:52:28.992Z,-5.70
2018-02-27T01:54:57.426Z,-5.80
2018-02-27T01:57:25.137Z,-5.80
2018-02-27T01:59:52.799Z,-5.70
2018-02-27T02:02:20.514Z,-5.70
2018-02-27T02:04:48.183Z,-5.80
2018-02-27T02:07:15.909Z,-5.70
2018-02-27T02:09:43.575Z,-5.70
2018-02-27T02:12:11.295Z,-5.80
2018-02-27T02:14:38.951Z,-5.90
2018-02-27T02:17:06.651Z,-5.90
2018-02-27T02:19:34.324Z,-5.90
2018-02-27T02:22:02.027Z,-5.90
2018-02-27T02:24:30.466Z,-6.10
2018-02-27T02:26:58.167Z,-6.10
2018-02-27T02:29:26.598Z,-6.10
2018-02-27T02:31:54.316Z,-6.10
2018-02-27T02:34:21.991Z,-6.10
2018-02-27T02:36:49.659Z,-6.10
2018-02-27T02:39:17.367Z,-6.20
2018-02-27T02:41:45.867Z,-6.40
2018-02-27T02:44:13.566Z,-6.40
2018-02-27T02:46:41.218Z,-6.40
2018-02-27T02:49:08.924Z,-6.50
2018-02-27T02:51:37.346Z,-6.40
2018-02-27T02:54:05.038Z,-6.40
2018-02-27T02:56:32.697Z,-6.30
2018-02-27T02:59:00.398Z,-6.40
2018-02-27T03:01:28.829Z,-6.50
2018-02-27T03:03:56.532Z,-6.50
2018-02-27T03:06:24.960Z,-6.50
2018-02-27T03:08:52.659Z,-6.60
2018-02-27T03:11:21.091Z,-6.60
2018-02-27T03:13:48.798Z,-6.60
2018-02-27T03:16:17.234Z,-6.60
2018-02-27T03:18:44.936Z,-6.60
2018-02-27T03:21:13.367Z,-6.70
2018-02-27T03:23:41.070Z,-6.70
2018-02-27T03:26:09.536Z,-6.60
2018-02-27T03:28:37.239Z,-6.60
2018-02-27T03:31:04.911Z,-6.60
2018-02-27T03:33:32.623Z,-6.80
2018-02-27T03:36:00.287Z,-6.80
2018-02-27T03:38:27.990Z,-6.80
2018-02-27T03:40:55.643Z,-6.80
2018-02-27T03:43:23.302Z,-6.90
2018-02-27T03:45:51.011Z,-6.80
2018-02-27T03:48:18.674Z,-6.80
2018-02-27T03:50:46.385Z,-6.70
2018-02-27T03:53:14.047Z,-6.80
2018-02-27T03:55:41.751Z,-6.90
2018-02-27T03:58:09.415Z,-6.90
2018-02-27T04:00:37.123Z,-7.20
2018-02-27T04:03:04.778Z,-7.20
2018-02-27T04:05:32.491Z,-7.40
2018-02-27T04:08:00.151Z,-7.40
2018-02-27T04:10:27.851Z,-7.30
2018-02-27T04:12:55.511Z,-7.50
2018-02-27T04:15:23.242Z,-7.60
2018-02-27T04:17:50.898Z,-7.40
2018-02-27T04:20:18.600Z,-7.30
2018-02-27T04:22:46.267Z,-7.50
2018-02-27T04:25:13.975Z,-7.60
2018-02-27T04:27:41.648Z,-7.50
2018-02-27T04:30:10.127Z,-7.60
2018-02-27T04:32:38.575Z,-7.70
2018-02-27T04:35:06.281Z,-7.80
2018-02-27T04:37:33.939Z,-7.60
2018-02-27T04:40:02.403Z,-7.80
2018-02-27T04:42:30.858Z,-7.80
2018-02-27T04:44:58.566Z,-7.80
2018-02-27T04:47:26.233Z,-7.70
2018-02-27T04:49:53.935Z,-7.80
2018-02-27T04:52:21.596Z,-7.80
2018-02-27T04:54:49.303Z,-7.90
2018-02-27T04:57:16.964Z,-7.80
2018-02-27T04:59:44.664Z,-8.00
2018-02-27T05:02:12.332Z,-7.80
2018-02-27T05:04:40.038Z,-7.80
2018-02-27T05:07:07.690Z,-7.90
2018-02-27T05:09:36.157Z,-8.10
2018-02-27T05:12:04.607Z,-8.00
2018-02-27T05:14:32.304Z,-8.00
2018-02-27T05:17:00.731Z,-8.00
2018-02-27T05:19:28.430Z,-8.10
2018-02-27T05:21:56.868Z,-8.20
2018-02-27T05:24:24.571Z,-8.30
2018-02-27T05:26:53.026Z,-8.30
2018-02-27T05:29:20.742Z,-8.30
2018-02-27T05:31:49.797Z,-8.20
2018-02-27T05:34:19.595Z,-8.10
2018-02-27T05:36:47.787Z,-8.20
2018-02-27T05:39:16.557Z,-8.20
2018-02-27T05:41:45.459Z,-8.20
2018-02-27T05:44:14.643Z,-8.10
2018-02-27T05:46:42.929Z,-8.10
2018-02-27T05:49:13.179Z,-8.20
2018-02-27T05:51:43.105Z,-8.30
2018-02-27T05:54:13.376Z,-8.20
2018-02-27T05:56:42.034Z,-8.20
2018-02-27T05:59:10.195Z,-8.30
2018-02-27T06:01:37.971Z,-8.30
2018-02-27T06:04:05.690Z,-8.30
2018-02-27T06:06:33.347Z,-8.40
2018-02-27T06:09:01.095Z,-8.50
2018-02-27T06:11:28.766Z,-8.60
2018-02-27T06:13:56.430Z,-8.60
2018-02-27T06:16:24.147Z,-8.60
2018-02-27T06:18:51.804Z,-8.50
2018-02-27T06:21:19.519Z,-8.50
2018-02-27T06:23:47.180Z,-8.50
2018-02-27T06:26:14.908Z,-8.50
2018-02-27T06:28:43.333Z,-8.50
2018-02-27T06:31:12.019Z,-8.50
2018-02-27T06:33:39.680Z,-8.40
2018-02-27T06:36:07.410Z,-8.30
2018-02-27T06:38:35.063Z,-8.30
2018-02-27T06:41:02.724Z,-8.30
2018-02-27T06:43:30.450Z,-8.40
2018-02-27T06:45:58.893Z,-8.50
2018-02-27T06:48:26.634Z,-8.60
2018-02-27T06:50:54.291Z,-8.50
2018-02-27T06:53:22.009Z,-8.50
2018-02-27T06:55:50.503Z,-8.40
2018-02-27T06:58:18.931Z,-8.50
2018-02-27T07:00:46.590Z,-8.50
2018-02-27T07:03:14.304Z,-8.80
2018-02-27T07:05:41.972Z,-8.60
2018-02-27T07:08:09.692Z,-8.50
2018-02-27T07:10:37.346Z,-8.50
2018-02-27T07:13:05.519Z,-8.40
2018-02-27T07:15:33.180Z,-8.60
2018-02-27T07:18:00.898Z,-8.60
2018-02-27T07:20:28.555Z,-8.30
2018-02-27T07:22:56.283Z,-8.30
2018-02-27T07:25:23.947Z,-8.20
2018-02-27T07:27:52.439Z,-8.10
2018-02-27T07:30:20.111Z,-8.10
2018-02-27T07:32:47.771Z,-8.00
2018-02-27T07:35:15.492Z,-7.80
2018-02-27T07:37:43.921Z,-7.90
2018-02-27T07:40:11.635Z,-7.90
2018-02-27T07:42:39.327Z,-7.80
2018-02-27T07:45:07.039Z,-8.00
2018-02-27T07:47:34.926Z,-8.10
2018-02-27T07:50:03.359Z,-8.00
2018-02-27T07:52:31.074Z,-8.10
2018-02-27T07:54:58.732Z,-7.80
2018-02-27T07:57:26.446Z,-7.70
2018-02-27T07:59:54.113Z,-7.60
2018-02-27T08:02:21.844Z,-7.70
2018-02-27T08:04:49.499Z,-7.70
2018-02-27T08:07:17.158Z,-7.80
2018-02-27T08:09:44.879Z,-7.60
2018-02-27T08:12:13.302Z,-7.30
2018-02-27T08:14:41.019Z,-7.30
2018-02-27T08:17:09.438Z,-6.90
2018-02-27T08:19:37.151Z,-6.90
2018-02-27T08:22:05.618Z,-7.00
2018-02-27T08:24:34.100Z,-6.80
2018-02-27T08:27:02.530Z,-6.90
2018-02-27T08:29:30.495Z,-7.00
2018-02-27T08:31:58.158Z,-6.70
2018-02-27T08:34:25.881Z,-6.80
2018-02-27T08:36:53.547Z,-6.70
2018-02-27T08:39:21.214Z,-6.80
2018-02-27T08:41:48.939Z,-7.10
2018-02-27T08:44:17.407Z,-7.10
2018-02-27T08:46:45.124Z,-7.10
2018-02-27T08:49:12.843Z,-6.90
2018-02-27T08:51:41.267Z,-6.50
2018-02-27T08:54:08.990Z,-6.50
2018-02-27T08:56:37.475Z,-6.30
2018-02-27T08:59:05.139Z,-6.30
2018-02-27T09:01:32.858Z,-6.30
2018-02-27T09:04:00.519Z,-6.20
2018-02-27T09:06:28.494Z,-6.10
2018-02-27T09:08:56.161Z,-6.30
2018-02-27T09:11:24.586Z,-5.80
2018-02-27T09:13:52.295Z,-5.80
2018-02-27T09:16:20.759Z,-5.60
2018-02-27T09:18:48.514Z,-5.60
2018-02-27T09:21:16.196Z,-6.20
2018-02-27T09:23:44.692Z,-5.80
2018-02-27T09:26:12.346Z,-5.90
2018-02-27T09:28:40.847Z,-6.00
2018-02-27T09:31:08.512Z,-6.00
2018-02-27T09:33:36.187Z,-5.70
2018-02-27T09:36:03.915Z,-5.60
2018-02-27T09:38:31.653Z,-5.30
2018-02-27T09:40:59.342Z,-5.20
2018-02-27T09:43:27.011Z,-5.00
2018-02-27T09:45:54.735Z,-5.40
2018-02-27T09:48:22.438Z,-5.60
2018-02-27T09:50:50.158Z,-5.50
2018-02-27T09:53:18.639Z,-5.10
2018-02-27T09:55:47.135Z,-5.00
2018-02-27T09:58:14.804Z,-5.10
2018-02-27T10:00:42.532Z,-5.10
2018-02-27T10:03:10.962Z,-4.90
2018-02-27T10:05:38.635Z,-4.90
2018-02-27T10:08:06.360Z,-4.80
2018-02-27T10:10:34.040Z,-4.60
2018-02-27T10:13:01.784Z,-4.40
2018-02-27T10:15:29.439Z,-4.20
2018-02-27T10:17:57.167Z,-4.20
2018-02-27T10:20:25.615Z,-4.20
2018-02-27T10:22:53.374Z,-4.20
2018-02-27T10:25:21.055Z,-3.80
2018-02-27T10:27:48.747Z,-3.70
2018-02-27T10:30:16.476Z,-4.20
2018-02-27T10:32:44.203Z,-3.80
2018-02-27T10:35:11.932Z,-3.80
2018-02-27T10:37:39.599Z,-3.50
2018-02-27T10:40:08.189Z,-3.40
2018-02-27T10:42:35.878Z,-3.40
2018-02-27T10:45:03.562Z,-3.50
2018-02-27T10:47:31.302Z,-3.60
2018-02-27T10:49:58.975Z,-3.40
2018-02-27T10:52:26.663Z,-3.60
2018-02-27T10:54:54.391Z,-3.50
2018-02-27T10:57:22.071Z,-3.50
2018-02-27T10:59:50.567Z,-3.10
2018-02-27T11:02:18.994Z,-3.50
2018-02-27T11:04:46.672Z,-3.50
2018-02-27T11:07:14.377Z,-3.70
2018-02-27T11:09:42.051Z,-3.70
2018-02-27T11:12:09.766Z,-3.50
2018-02-27T11:14:38.258Z,-3.50
2018-02-27T11:17:05.988Z,-3.50
2018-02-27T11:19:33.699Z,-3.20
2018-02-27T11:22:01.362Z,-2.90
2018-02-27T11:24:29.079Z,-2.90
2018-02-27T11:26:56.743Z,-2.80
2018-02-27T11:29:25.622Z,-2.10
2018-02-27T11:31:53.292Z,-2.20
2018-02-27T11:34:21.514Z,-2.30
2018-02-27T11:36:49.166Z,-2.50
2018-02-27T11:39:16.883Z,-2.40
2018-02-27T11:41:45.309Z,-2.20
2018-02-27T11:44:13.035Z,-2.30
2018-02-27T11:46:41.465Z,-1.90
2018-02-27T11:49:09.123Z,-1.90
2018-02-27T11:51:36.834Z,-1.80
2018-02-27T11:54:04.486Z,-2.30
2018-02-27T11:56:32.958Z,-2.80
2018-02-27T11:59:01.389Z,-2.50
2018-02-27T12:01:29.104Z,-2.50
2018-02-27T12:03:57.591Z,-2.00
2018-02-27T12:06:25.267Z,-2.10
2018-02-27T12:08:52.938Z,-2.20
2018-02-27T12:11:20.655Z,-2.20
2018-02-27T12:13:49.089Z,-2.30
2018-02-27T12:16:16.807Z,-2.40
2018-02-27T12:18:44.466Z,-2.20
2018-02-27T12:21:12.186Z,-2.00
2018-02-27T12:23:39.876Z,-1.90
2018-02-27T12:26:08.379Z,-1.90
2018-02-27T12:28:36.051Z,-1.90
2018-02-27T12:31:03.707Z,-1.80
2018-02-27T12:33:31.429Z,-1.60
2018-02-27T12:35:59.951Z,-1.60
2018-02-27T12:38:27.678Z,-1.60
2018-02-27T12:40:56.105Z,-1.10
2018-02-27T12:43:23.825Z,-1.10
2018-02-27T12:45:51.490Z,-1.30
2018-02-27T12:48:19.203Z,-1.20
2018-02-27T12:50:46.866Z,-1.20
2018-02-27T12:53:14.589Z,-1.30
2018-02-27T12:55:42.278Z,-1.20
2018-02-27T12:58:10.012Z,-1.20
2018-02-27T13:00:37.672Z,-1.20
2018-02-27T13:03:05.330Z,-1.20
2018-02-27T13:05:33.055Z,-1.40
2018-02-27T13:08:01.476Z,-1.60
2018-02-27T13:10:29.144Z,-1.60
2018-02-27T13:12:56.868Z,-1.50
2018-02-27T13:15:24.540Z,-1.20
2018-02-27T13:17:52.313Z,-1.10
2018-02-27T13:20:19.972Z,-1.00
2018-02-27T13:22:47.703Z,-0.90
2018-02-27T13:25:15.448Z,-1.30
2018-02-27T13:27:44.096Z,-1.20
2018-02-27T13:30:11.792Z,-1.20
2018-02-27T13:32:40.357Z,-1.30
2018-02-27T13:35:08.016Z,-1.30
2018-02-27T13:37:35.761Z,-1.30
2018-02-27T13:40:03.442Z,-1.00
2018-02-27T13:42:31.875Z,-1.20
2018-02-27T13:44:59.595Z,-1.30
2018-02-27T13:47:28.019Z,-1.60
2018-02-27T13:49:55.688Z,-1.60
2018-02-27T13:52:23.453Z,-1.50
2018-02-27T13:54:51.103Z,-1.50
2018-02-27T13:57:18.822Z,-1.60
2018-02-27T13:59:46.480Z,-1.50
2018-02-27T14:02:14.214Z,-1.40
2018-02-27T14:04:41.875Z,-1.50
2018-02-27T14:07:10.357Z,-1.60
2018-02-27T14:09:39.519Z,-1.50
2018-02-27T14:12:07.190Z,-1.50
2018-02-27T14:14:34.899Z,-1.60
2018-02-27T14:17:02.559Z,-1.70
2018-02-27T14:19:30.287Z,-1.50
2018-02-27T14:21:58.720Z,-1.30
2018-02-27T14:24:26.423Z,-1.30
2018-02-27T14:26:54.891Z,-1.20
2018-02-27T14:29:22.549Z,-1.20
2018-02-27T14:31:50.259Z,-1.30
2018-02-27T14:34:17.917Z,-1.80
2018-02-27T14:36:45.620Z,-1.90
2018-02-27T14:39:13.286Z,-2.00
2018-02-27T14:41:40.995Z,-1.80
2018-02-27T14:44:08.655Z,-1.60
2018-02-27T14:46:36.355Z,-1.80
2018-02-27T14:49:04.547Z,-2.10
2018-02-27T14:51:32.251Z,-2.10
2018-02-27T14:53:59.910Z,-2.10
2018-02-27T14:56:27.621Z,-2.00
2018-02-27T14:58:55.287Z,-2.00
2018-02-27T15:01:22.982Z,-2.10
2018-02-27T15:03:50.635Z,-2.20
2018-02-27T15:06:18.351Z,-2.20
2018-02-27T15:08:46.011Z,-2.20
2018-02-27T15:11:13.724Z,-2.30
2018-02-27T15:13:41.384Z,-2.30
2018-02-27T15:16:09.039Z,-2.30
2018-02-27T15:18:36.751Z,-2.30
2018-02-27T15:21:04.415Z,-2.30
2018-02-27T15:23:32.119Z,-2.40
2018-02-27T15:25:59.783Z,-2.40
2018-02-27T15:28:27.498Z,-2.40
2018-02-27T15:30:55.169Z,-2.40
2018-02-27T15:33:23.651Z,-2.50
2018-02-27T15:35:52.079Z,-2.60
2018-02-27T15:38:19.780Z,-2.60
2018-02-27T15:40:48.214Z,-2.80
2018-02-27T15:43:15.910Z,-2.80
2018-02-27T15:45:43.571Z,-2.80
2018-02-27T15:48:11.288Z,-2.90
2018-02-27T15:50:38.954Z,-2.90
2018-02-27T15:53:06.648Z,-2.90
2018-02-27T15:55:34.417Z,-2.90
2018-02-27T15:58:02.886Z,-2.80
2018-02-27T16:00:30.558Z,-2.90
2018-02-27T16:02:58.992Z,-2.80
2018-02-27T16:05:26.710Z,-2.90
2018-02-27T16:07:54.396Z,-2.90
2018-02-27T16:10:22.102Z,-3.10
2018-02-27T16:12:49.772Z,-3.10
2018-02-27T16:15:18.256Z,-3.00
2018-02-27T16:17:46.689Z,-3.10
2018-02-27T16:20:15.172Z,-3.10
2018-02-27T16:22:42.834Z,-3.10
2018-02-27T16:25:10.548Z,-3.10
2018-02-27T16:27:38.222Z,-3.10
2018-02-27T16:30:05.950Z,-3.20
2018-02-27T16:32:34.380Z,-3.40
2018-02-27T16:35:02.085Z,-3.40
2018-02-27T16:37:30.511Z,-3.50
2018-02-27T16:39:58.215Z,-3.50
2018-02-27T16:42:25.883Z,-3.40
2018-02-27T16:44:54.367Z,-3.60
2018-02-27T16:47:22.803Z,-3.50
2018-02-27T16:49:50.462Z,-3.50
2018-02-27T16:52:18.179Z,-3.70
2018-02-27T16:54:45.852Z,-3.70
2018-02-27T16:57:13.563Z,-3.80
2018-02-27T16:59:41.231Z,-3.80
2018-02-27T17:02:08.982Z,-3.80
2018-02-27T17:04:36.654Z,-3.90
2018-02-27T17:07:04.444Z,-3.90
2018-02-27T17:09:32.079Z,-4.00
2018-02-27T17:12:00.563Z,-4.00
2018-02-27T17:14:29.008Z,-4.10
2018-02-27T17:16:56.716Z,-4.10
2018-02-27T17:19:24.383Z,-4.10
2018-02-27T17:21:52.088Z,-4.00
2018-02-27T17:24:19.753Z,-4.10
2018-02-27T17:26:47.470Z,-4.10
2018-02-27T17:29:15.133Z,-4.10
2018-02-27T17:31:42.850Z,-4.40
2018-02-27T17:34:11.286Z,-4.40
2018-02-27T17:36:39.716Z,-4.30
2018-02-27T17:39:07.423Z,-4.30
2018-02-27T17:41:35.083Z,-4.50
2018-02-27T17:44:02.790Z,-4.40
2018-02-27T17:46:31.211Z,-4.50
2018-02-27T17:48:58.918Z,-4.50
2018-02-27T17:51:26.579Z,-4.40
2018-02-27T17:53:55.051Z,-4.60
2018-02-27T17:56:22.707Z,-4.60
2018-02-27T17:58:50.407Z,-4.50
2018-02-27T18:01:18.076Z,-4.60
2018-02-27T18:03:45.787Z,-4.60
2018-02-27T18:06:13.456Z,-4.80
2018-02-27T18:08:41.939Z,-4.60
2018-02-27T18:11:10.379Z,-4.80
2018-02-27T18:13:38.091Z,-4.90
2018-02-27T18:16:06.519Z,-4.80
2018-02-27T18:18:34.231Z,-4.80
2018-02-27T18:21:01.936Z,-5.00
2018-02-27T18:23:29.646Z,-5.10
2018-02-27T18:25:58.087Z,-5.00
2018-02-27T18:28:25.792Z,-5.00
2018-02-27T18:30:53.459Z,-4.90
2018-02-27T18:33:21.177Z,-4.90
2018-02-27T18:35:48.850Z,-4.90
2018-02-27T18:38:17.368Z,-5.00
2018-02-27T18:40:45.035Z,-5.10
2018-02-27T18:43:12.775Z,-5.10
2018-02-27T18:45:40.440Z,-5.00
2018-02-27T18:48:08.163Z,-5.10
2018-02-27T18:50:35.831Z,-5.10
2018-02-27T18:53:04.319Z,-5.30
2018-02-27T18:55:32.752Z,-5.20
2018-02-27T18:58:00.463Z,-5.20
2018-02-27T19:00:28.200Z,-5.20
2018-02-27T19:02:56.686Z,-5.40
2018-02-27T19:05:25.132Z,-5.30
2018-02-27T19:07:52.848Z,-5.30
2018-02-27T19:10:20.523Z,-5.30
2018-02-27T19:12:48.247Z,-5.30
2018-02-27T19:15:16.696Z,-5.30
2018-02-27T19:17:44.416Z,-5.30
2018-02-27T19:20:12.121Z,-5.30
2018-02-27T19:22:39.835Z,-5.40
2018-02-27T19:25:07.511Z,-5.40
2018-02-27T19:27:35.227Z,-5.60
2018-02-27T19:30:03.727Z,-5.70
2018-02-27T19:32:31.458Z,-5.70
2018-02-27T19:34:59.892Z,-5.40
2018-02-27T19:37:27.604Z,-5.40
2018-02-27T19:39:56.143Z,-5.70
2018-02-27T19:42:23.869Z,-5.80
2018-02-27T19:44:51.641Z,-5.80
2018-02-27T19:47:20.271Z,-5.90
2018-02-27T19:49:47.956Z,-5.80
2018-02-27T19:52:15.681Z,-5.80
2018-02-27T19:54:43.360Z,-5.70
2018-02-27T19:57:11.874Z,-5.70
2018-02-27T19:59:39.596Z,-5.70
2018-02-27T20:02:07.270Z,-5.70
2018-02-27T20:04:35.743Z,-5.70
2018-02-27T20:07:04.191Z,-5.70
2018-02-27T20:09:31.908Z,-5.70
2018-02-27T20:11:59.596Z,-5.80
2018-02-27T20:14:30.857Z,-5.70
2018-02-27T20:16:58.601Z,-5.70
2018-02-27T20:19:26.332Z,-5.70
2018-02-27T20:21:53.999Z,-5.70
2018-02-27T20:24:21.760Z,-5.70
2018-02-27T20:26:49.470Z,-5.80
2018-02-27T20:29:22.097Z,-5.70
2018-02-27T20:31:49.819Z,-5.80
2018-02-27T20:34:18.293Z,-5.80
2018-02-27T20:36:46.007Z,-5.80
2018-02-27T20:39:19.454Z,-5.80
2018-02-27T20:41:47.902Z,-5.80
2018-02-27T20:44:15.615Z,-5.80
2018-02-27T20:46:43.293Z,-5.90
2018-02-27T20:49:11.013Z,-6.10
2018-02-27T20:51:39.467Z,-6.00
2018-02-27T20:54:07.180Z,-6.10
2018-02-27T20:56:34.863Z,-6.10
2018-02-27T20:59:02.575Z,-5.90
2018-02-27T21:01:31.027Z,-6.00
2018-02-27T21:03:58.756Z,-6.00
2018-02-27T21:06:26.418Z,-6.20
2018-02-27T21:08:54.126Z,-6.30
2018-02-27T21:11:22.568Z,-6.30
2018-02-27T21:13:50.277Z,-6.30
2018-02-27T21:16:18.703Z,-6.40
2018-02-27T21:18:46.414Z,-6.40
2018-02-27T21:21:14.871Z,-6.70
2018-02-27T21:23:42.583Z,-6.70
2018-02-27T21:26:10.251Z,-6.60
2018-02-27T21:28:37.993Z,-6.70
2018-02-27T21:31:05.668Z,-6.70
2018-02-27T21:33:33.383Z,-6.50
2018-02-27T21:36:01.814Z,-6.80
2018-02-27T21:38:29.523Z,-6.80
2018-02-27T21:40:57.955Z,-6.70
2018-02-27T21:43:25.675Z,-6.80
2018-02-27T21:45:54.123Z,-6.90
2018-02-27T21:48:21.829Z,-6.90
2018-02-27T21:50:49.494Z,-6.90
2018-02-27T21:53:17.204Z,-6.80
2018-02-27T21:55:44.868Z,-6.80
2018-02-27T21:58:12.587Z,-6.90
2018-02-27T22:00:40.251Z,-7.00
2018-02-27T22:03:07.959Z,-6.90
2018-02-27T22:05:36.389Z,-7.00
2018-02-27T22:08:04.122Z,-7.10
2018-02-27T22:10:31.790Z,-7.00
2018-02-27T22:12:59.546Z,-7.10
2018-02-27T22:15:27.218Z,-7.30
2018-02-27T22:17:54.879Z,-7.20
2018-02-27T22:20:22.579Z,-7.20
2018-02-27T22:22:50.250Z,-7.40
2018-02-27T22:25:17.958Z,-7.30
2018-02-27T22:27:45.624Z,-7.10
2018-02-27T22:30:13.322Z,-7.00
2018-02-27T22:32:40.980Z,-7.10
2018-02-27T22:35:08.691Z,-7.20
2018-02-27T22:37:36.367Z,-7.20
2018-02-27T22:40:04.079Z,-7.20
2018-02-27T22:42:32.518Z,-7.00
2018-02-27T22:45:00.224Z,-7.10
2018-02-27T22:47:28.651Z,-7.20
2018-02-27T22:49:56.359Z,-7.20
2018-02-27T22:52:24.783Z,-7.10
2018-02-27T22:54:52.500Z,-7.20
2018-02-27T22:57:20.923Z,-7.20
2018-02-27T22:59:48.631Z,-7.20
2018-02-27T23:02:17.069Z,-7.10
2018-02-27T23:04:44.792Z,-7.10
2018-02-27T23:07:12.456Z,-7.20
2018-02-27T23:09:40.161Z,-7.10
2018-02-27T23:12:07.826Z,-7.10
2018-02-27T23:14:35.531Z,-7.10
2018-02-27T23:17:03.199Z,-7.10
2018-02-27T23:19:30.911Z,-7.10
2018-02-27T23:21:58.582Z,-7.00
2018-02-27T23:24:26.419Z,-6.90
2018-02-27T23:26:54.958Z,-6.90
2018-02-27T23:29:22.795Z,-6.90
2018-02-27T23:31:52.343Z,-6.90
2018-02-27T23:34:23.002Z,-6.90
2018-02-27T23:36:50.672Z,-6.90
2018-02-27T23:39:18.382Z,-6.90
2018-02-27T23:41:46.039Z,-6.90
2018-02-27T23:44:13.748Z,-6.90
2018-02-27T23:46:41.415Z,-6.90
2018-02-27T23:49:09.127Z,-7.00
2018-02-27T23:51:36.792Z,-7.00
2018-02-27T23:54:04.506Z,-7.00
2018-02-27T23:56:32.934Z,-7.00
2018-02-27T23:59:00.644Z,-7.00
